createdAt,value
2023-04-23T12:06:29.523Z,17.30
2023-04-23T13:58:46.920Z,18.90
2023-04-23T14:31:35.086Z,16.40
2023-04-23T14:35:35.706Z,16.40
2023-04-23T14:42:16.617Z,16.30
2023-04-23T14:45:21.816Z,16.20
2023-04-23T14:48:14.533Z,15.90
2023-04-23T14:54:45.578Z,15.20
2023-04-23T14:57:38.648Z,15.20
2023-04-23T15:01:07.421Z,15.20
2023-04-23T15:03:58.717Z,15.20
2023-04-23T15:06:49.344Z,15.00
2023-04-23T15:09:39.853Z,15.00
2023-04-23T15:12:52.842Z,14.80
2023-04-23T15:15:46.164Z,14.60
2023-04-23T15:18:37.530Z,14.60
2023-04-23T15:21:27.931Z,14.60
2023-04-23T15:24:17.993Z,14.70
2023-04-23T15:27:08.530Z,14.80
2023-04-23T15:30:01.114Z,14.90
2023-04-23T15:32:52.191Z,14.90
2023-04-23T15:35:45.204Z,14.90
2023-04-23T15:38:43.122Z,14.80
2023-04-23T15:41:33.455Z,14.80
2023-04-23T15:44:22.785Z,14.80
2023-04-23T15:50:41.256Z,14.70
2023-04-23T15:53:51.279Z,14.50
2023-04-23T16:05:50.837Z,13.60
2023-04-23T17:49:26.395Z,10.60
2023-04-23T18:08:04.107Z,10.20
2023-04-23T18:43:36.662Z,9.90
2023-04-23T18:46:25.479Z,9.90
2023-04-23T18:49:39.414Z,10.00
2023-04-23T18:52:28.389Z,9.90
2023-04-23T18:55:17.314Z,10.00
2023-04-23T18:58:06.142Z,9.90
2023-04-23T19:21:14.587Z,9.70
2023-04-23T19:32:45.832Z,9.70
2023-04-23T19:35:39.905Z,9.70
2023-04-23T21:44:56.763Z,9.40
2023-04-23T21:47:45.568Z,9.40
2023-04-23T21:50:34.831Z,9.40
2023-04-23T21:53:23.820Z,9.40
2023-04-23T21:56:12.394Z,9.50
2023-04-23T21:59:01.283Z,9.50
2023-04-23T22:30:59.355Z,8.80
2023-04-23T22:33:47.983Z,8.80
2023-04-23T22:36:36.639Z,8.80
2023-04-23T22:39:25.213Z,8.80
2023-04-23T22:42:13.837Z,8.80
2023-04-23T22:45:02.904Z,8.70
2023-04-23T22:47:53.178Z,8.80
2023-04-23T22:50:42.752Z,8.80
2023-04-23T22:53:31.392Z,8.80
2023-04-23T22:56:20.311Z,8.90
2023-04-23T22:59:09.180Z,9.00
2023-04-23T23:01:58.007Z,9.00
2023-04-23T23:04:47.986Z,9.00
2023-04-23T23:07:36.547Z,9.00
2023-04-23T23:10:25.199Z,9.10
2023-04-23T23:13:13.771Z,9.10
2023-04-23T23:16:06.112Z,9.10
2023-04-23T23:18:54.904Z,9.10
2023-04-23T23:21:44.957Z,9.10
2023-04-23T23:24:35.090Z,9.10
2023-04-23T23:27:24.342Z,9.10
2023-04-23T23:30:13.451Z,9.20
2023-04-23T23:33:02.533Z,9.20
2023-04-23T23:35:51.336Z,9.20
2023-04-23T23:38:41.331Z,9.20
2023-04-23T23:41:29.946Z,9.20
2023-04-23T23:48:19.956Z,9.10
2023-04-23T23:51:08.703Z,9.10
2023-04-23T23:53:58.966Z,9.20
2023-04-23T23:56:47.692Z,9.10
2023-04-23T23:59:36.636Z,9.20
